sensor_id;sensor_type;location;lat;lon;timestamp;pressure;altitude;pressure_sealevel;temperature;humidity
47524;BME280;33253;42.144;25.884;2022-07-23T00:01:31;100508.69;;;23.51;50.97
47524;BME280;33253;42.144;25.884;2022-07-23T00:03:57;100501.91;;;23.36;51.10
47524;BME280;33253;42.144;25.884;2022-07-23T00:06:23;100522.06;;;23.39;51.30
47524;BME280;33253;42.144;25.884;2022-07-23T00:08:49;100509.91;;;23.30;51.37
47524;BME280;33253;42.144;25.884;2022-07-23T00:11:16;100510.72;;;23.35;51.11
47524;BME280;33253;42.144;25.884;2022-07-23T00:16:15;100489.22;;;23.60;50.33
47524;BME280;33253;42.144;25.884;2022-07-23T00:18:41;100516.41;;;23.65;51.61
47524;BME280;33253;42.144;25.884;2022-07-23T00:21:07;100500.91;;;23.47;52.64
47524;BME280;33253;42.144;25.884;2022-07-23T00:23:32;100444.00;;;22.75;52.63
47524;BME280;33253;42.144;25.884;2022-07-23T00:25:58;100506.34;;;23.33;51.93
47524;BME280;33253;42.144;25.884;2022-07-23T00:28:24;100514.22;;;23.36;52.62
47524;BME280;33253;42.144;25.884;2022-07-23T00:30:49;100505.66;;;23.21;53.33
47524;BME280;33253;42.144;25.884;2022-07-23T00:33:15;100483.38;;;23.42;52.75
47524;BME280;33253;42.144;25.884;2022-07-23T00:35:41;100493.41;;;23.19;52.53
47524;BME280;33253;42.144;25.884;2022-07-23T00:38:08;100514.38;;;23.25;52.71
47524;BME280;33253;42.144;25.884;2022-07-23T00:40:35;100495.13;;;23.23;52.59
47524;BME280;33253;42.144;25.884;2022-07-23T00:43:01;100508.19;;;23.29;52.97
47524;BME280;33253;42.144;25.884;2022-07-23T00:45:27;100508.16;;;23.31;52.91
47524;BME280;33253;42.144;25.884;2022-07-23T00:47:53;100481.41;;;22.96;53.36
47524;BME280;33253;42.144;25.884;2022-07-23T00:50:18;100518.22;;;23.01;53.15
47524;BME280;33253;42.144;25.884;2022-07-23T00:52:44;100504.31;;;22.91;53.06
47524;BME280;33253;42.144;25.884;2022-07-23T00:55:11;100422.47;;;22.42;52.95
47524;BME280;33253;42.144;25.884;2022-07-23T00:57:38;100504.16;;;23.02;52.49
47524;BME280;33253;42.144;25.884;2022-07-23T01:00:12;100500.63;;;23.04;53.19
47524;BME280;33253;42.144;25.884;2022-07-23T01:02:39;100465.63;;;22.96;52.82
47524;BME280;33253;42.144;25.884;2022-07-23T01:05:05;100504.78;;;23.21;52.03
47524;BME280;33253;42.144;25.884;2022-07-23T01:07:31;100491.66;;;23.18;52.37
47524;BME280;33253;42.144;25.884;2022-07-23T01:09:56;100414.91;;;22.83;52.63
47524;BME280;33253;42.144;25.884;2022-07-23T01:12:22;100509.59;;;23.52;52.37
47524;BME280;33253;42.144;25.884;2022-07-23T01:14:58;100488.56;;;23.47;52.19
47524;BME280;33253;42.144;25.884;2022-07-23T01:17:25;100500.53;;;23.68;52.54
47524;BME280;33253;42.144;25.884;2022-07-23T01:19:51;100498.66;;;23.77;52.32
47524;BME280;33253;42.144;25.884;2022-07-23T01:22:18;100488.78;;;23.88;52.55
47524;BME280;33253;42.144;25.884;2022-07-23T01:24:45;100482.91;;;23.72;53.74
47524;BME280;33253;42.144;25.884;2022-07-23T01:27:11;100495.16;;;23.74;54.77
47524;BME280;33253;42.144;25.884;2022-07-23T01:29:39;100485.72;;;23.61;55.50
47524;BME280;33253;42.144;25.884;2022-07-23T01:32:05;100497.25;;;23.54;57.17
47524;BME280;33253;42.144;25.884;2022-07-23T01:34:31;100493.19;;;23.34;54.89
47524;BME280;33253;42.144;25.884;2022-07-23T01:36:57;100503.09;;;23.14;52.87
47524;BME280;33253;42.144;25.884;2022-07-23T01:39:23;100464.13;;;22.76;52.42
47524;BME280;33253;42.144;25.884;2022-07-23T01:41:48;100509.34;;;23.06;52.15
47524;BME280;33253;42.144;25.884;2022-07-23T01:47:36;100419.16;;;21.34;54.34
47524;BME280;33253;42.144;25.884;2022-07-23T01:50:01;100466.31;;;21.56;54.61
47524;BME280;33253;42.144;25.884;2022-07-23T01:52:27;100462.88;;;21.40;55.31
47524;BME280;33253;42.144;25.884;2022-07-23T01:54:52;100505.56;;;21.72;55.60
47524;BME280;33253;42.144;25.884;2022-07-23T01:57:18;100495.06;;;21.73;55.23
47524;BME280;33253;42.144;25.884;2022-07-23T01:59:43;100449.75;;;21.40;55.36
47524;BME280;33253;42.144;25.884;2022-07-23T02:02:09;100502.09;;;21.68;55.21
47524;BME280;33253;42.144;25.884;2022-07-23T02:04:34;100499.53;;;21.63;55.54
47524;BME280;33253;42.144;25.884;2022-07-23T02:07:02;100471.75;;;21.28;56.06
47524;BME280;33253;42.144;25.884;2022-07-23T02:09:48;100479.66;;;21.24;56.25
47524;BME280;33253;42.144;25.884;2022-07-23T02:12:13;100497.03;;;21.40;56.79
47524;BME280;33253;42.144;25.884;2022-07-23T02:14:39;100455.06;;;21.34;56.29
47524;BME280;33253;42.144;25.884;2022-07-23T02:17:04;100467.16;;;21.54;56.03
47524;BME280;33253;42.144;25.884;2022-07-23T02:19:30;100490.75;;;21.66;55.47
47524;BME280;33253;42.144;25.884;2022-07-23T02:21:55;100488.00;;;21.78;55.34
47524;BME280;33253;42.144;25.884;2022-07-23T02:24:21;100498.28;;;22.03;54.84
47524;BME280;33253;42.144;25.884;2022-07-23T02:26:47;100501.66;;;22.16;54.36
47524;BME280;33253;42.144;25.884;2022-07-23T02:29:12;100492.75;;;22.28;53.47
47524;BME280;33253;42.144;25.884;2022-07-23T02:31:38;100489.16;;;22.40;54.09
47524;BME280;33253;42.144;25.884;2022-07-23T02:34:04;100492.47;;;22.56;53.25
47524;BME280;33253;42.144;25.884;2022-07-23T02:36:30;100494.16;;;22.63;53.48
47524;BME280;33253;42.144;25.884;2022-07-23T02:38:56;100455.88;;;22.33;53.24
47524;BME280;33253;42.144;25.884;2022-07-23T02:41:22;100441.97;;;22.23;53.24
47524;BME280;33253;42.144;25.884;2022-07-23T02:43:48;100509.84;;;22.69;53.30
47524;BME280;33253;42.144;25.884;2022-07-23T02:46:13;100502.00;;;22.65;52.93
47524;BME280;33253;42.144;25.884;2022-07-23T02:48:39;100497.84;;;22.45;53.80
47524;BME280;33253;42.144;25.884;2022-07-23T02:51:04;100510.34;;;22.21;54.96
47524;BME280;33253;42.144;25.884;2022-07-23T02:53:30;100521.38;;;21.67;56.55
47524;BME280;33253;42.144;25.884;2022-07-23T02:55:56;100520.41;;;21.77;56.73
47524;BME280;33253;42.144;25.884;2022-07-23T02:58:21;100513.06;;;20.94;59.89
47524;BME280;33253;42.144;25.884;2022-07-23T03:00:47;100530.50;;;21.07;59.69
47524;BME280;33253;42.144;25.884;2022-07-23T03:03:12;100539.13;;;21.31;60.03
47524;BME280;33253;42.144;25.884;2022-07-23T03:05:38;100474.69;;;20.77;60.69
47524;BME280;33253;42.144;25.884;2022-07-23T03:08:03;100452.94;;;20.44;61.79
47524;BME280;33253;42.144;25.884;2022-07-23T03:10:29;100520.88;;;21.03;61.23
47524;BME280;33253;42.144;25.884;2022-07-23T03:12:54;100484.16;;;21.03;59.70
47524;BME280;33253;42.144;25.884;2022-07-23T03:15:20;100538.97;;;21.49;59.18
47524;BME280;33253;42.144;25.884;2022-07-23T03:17:45;100535.34;;;21.72;58.11
47524;BME280;33253;42.144;25.884;2022-07-23T03:20:11;100546.63;;;21.85;58.03
47524;BME280;33253;42.144;25.884;2022-07-23T03:22:36;100544.81;;;21.90;58.08
47524;BME280;33253;42.144;25.884;2022-07-23T03:25:02;100486.44;;;21.57;58.62
47524;BME280;33253;42.144;25.884;2022-07-23T03:27:29;100529.91;;;21.97;57.98
47524;BME280;33253;42.144;25.884;2022-07-23T03:29:57;100542.06;;;22.07;57.88
47524;BME280;33253;42.144;25.884;2022-07-23T03:32:24;100544.53;;;22.21;57.23
47524;BME280;33253;42.144;25.884;2022-07-23T03:34:50;100504.31;;;22.14;56.56
47524;BME280;33253;42.144;25.884;2022-07-23T03:37:16;100523.47;;;22.26;56.67
47524;BME280;33253;42.144;25.884;2022-07-23T03:39:42;100487.72;;;22.06;56.11
47524;BME280;33253;42.144;25.884;2022-07-23T03:42:07;100536.56;;;22.30;56.92
47524;BME280;33253;42.144;25.884;2022-07-23T03:44:33;100530.63;;;22.11;56.96
47524;BME280;33253;42.144;25.884;2022-07-23T03:46:59;100538.44;;;22.21;57.10
47524;BME280;33253;42.144;25.884;2022-07-23T03:49:24;100490.44;;;21.98;57.10
47524;BME280;33253;42.144;25.884;2022-07-23T03:51:50;100542.59;;;22.43;56.88
47524;BME280;33253;42.144;25.884;2022-07-23T03:54:16;100538.22;;;22.42;56.87
47524;BME280;33253;42.144;25.884;2022-07-23T03:56:41;100558.50;;;22.26;57.73
47524;BME280;33253;42.144;25.884;2022-07-23T03:59:08;100491.41;;;21.90;57.87
47524;BME280;33253;42.144;25.884;2022-07-23T04:01:34;100541.91;;;22.21;58.07
47524;BME280;33253;42.144;25.884;2022-07-23T04:03:59;100545.34;;;22.31;57.88
47524;BME280;33253;42.144;25.884;2022-07-23T04:06:25;100539.13;;;22.35;57.38
47524;BME280;33253;42.144;25.884;2022-07-23T04:08:50;100551.38;;;22.42;57.83
47524;BME280;33253;42.144;25.884;2022-07-23T04:11:16;100536.56;;;22.32;57.70
47524;BME280;33253;42.144;25.884;2022-07-23T04:13:41;100552.25;;;22.41;57.92
47524;BME280;33253;42.144;25.884;2022-07-23T04:16:07;100539.19;;;22.32;58.12
47524;BME280;33253;42.144;25.884;2022-07-23T04:18:32;100550.59;;;22.31;58.63
47524;BME280;33253;42.144;25.884;2022-07-23T04:20:58;100547.09;;;22.29;58.81
47524;BME280;33253;42.144;25.884;2022-07-23T04:23:23;100551.44;;;22.32;59.17
47524;BME280;33253;42.144;25.884;2022-07-23T04:25:49;100547.88;;;22.40;59.08
47524;BME280;33253;42.144;25.884;2022-07-23T04:28:14;100554.06;;;22.39;59.34
47524;BME280;33253;42.144;25.884;2022-07-23T04:30:40;100541.00;;;22.24;60.21
47524;BME280;33253;42.144;25.884;2022-07-23T04:33:05;100557.59;;;22.29;59.80
47524;BME280;33253;42.144;25.884;2022-07-23T04:35:35;100506.19;;;22.03;59.90
47524;BME280;33253;42.144;25.884;2022-07-23T04:38:02;100489.63;;;21.90;59.53
47524;BME280;33253;42.144;25.884;2022-07-23T04:40:28;100576.03;;;22.27;59.65
47524;BME280;33253;42.144;25.884;2022-07-23T04:42:54;100558.50;;;22.28;59.14
47524;BME280;33253;42.144;25.884;2022-07-23T04:45:19;100549.81;;;22.20;58.87
47524;BME280;33253;42.144;25.884;2022-07-23T04:47:45;100562.94;;;22.23;59.54
47524;BME280;33253;42.144;25.884;2022-07-23T04:50:11;100499.25;;;21.91;59.86
47524;BME280;33253;42.144;25.884;2022-07-23T04:52:37;100566.22;;;22.46;59.22
47524;BME280;33253;42.144;25.884;2022-07-23T04:55:03;100566.16;;;22.53;59.43
47524;BME280;33253;42.144;25.884;2022-07-23T04:57:29;100566.09;;;22.60;58.73
47524;BME280;33253;42.144;25.884;2022-07-23T04:59:54;100521.59;;;22.39;59.09
47524;BME280;33253;42.144;25.884;2022-07-23T05:02:19;100569.41;;;22.76;58.27
47524;BME280;33253;42.144;25.884;2022-07-23T05:04:45;100548.38;;;22.75;57.91
47524;BME280;33253;42.144;25.884;2022-07-23T05:07:11;100557.81;;;22.93;58.11
47524;BME280;33253;42.144;25.884;2022-07-23T05:09:36;100566.53;;;22.98;58.35
47524;BME280;33253;42.144;25.884;2022-07-23T05:12:02;100508.13;;;22.65;58.15
47524;BME280;33253;42.144;25.884;2022-07-23T05:14:28;100566.34;;;23.12;58.00
47524;BME280;33253;42.144;25.884;2022-07-23T05:16:53;100567.88;;;23.29;57.54
47524;BME280;33253;42.144;25.884;2022-07-23T05:19:19;100565.13;;;23.36;57.31
47524;BME280;33253;42.144;25.884;2022-07-23T05:21:44;100564.13;;;23.47;57.07
47524;BME280;33253;42.144;25.884;2022-07-23T05:24:10;100548.31;;;23.45;57.32
47524;BME280;33253;42.144;25.884;2022-07-23T05:26:35;100544.88;;;23.40;57.07
47524;BME280;33253;42.144;25.884;2022-07-23T05:29:01;100548.09;;;23.61;56.73
47524;BME280;33253;42.144;25.884;2022-07-23T05:31:26;100562.81;;;23.75;56.29
47524;BME280;33253;42.144;25.884;2022-07-23T05:33:52;100555.63;;;23.84;56.20
47524;BME280;33253;42.144;25.884;2022-07-23T05:36:17;100568.00;;;23.80;55.65
47524;BME280;33253;42.144;25.884;2022-07-23T05:38:43;100506.75;;;23.63;55.62
47524;BME280;33253;42.144;25.884;2022-07-23T05:41:08;100559.81;;;23.97;54.60
47524;BME280;33253;42.144;25.884;2022-07-23T05:43:34;100559.66;;;24.08;54.49
47524;BME280;33253;42.144;25.884;2022-07-23T05:45:59;100558.66;;;24.14;54.32
47524;BME280;33253;42.144;25.884;2022-07-23T05:48:24;100546.50;;;24.06;53.88
47524;BME280;33253;42.144;25.884;2022-07-23T05:50:50;100547.09;;;24.21;53.73
47524;BME280;33253;42.144;25.884;2022-07-23T05:53:15;100555.69;;;24.32;53.70
47524;BME280;33253;42.144;25.884;2022-07-23T05:55:41;100551.13;;;24.41;53.96
47524;BME280;33253;42.144;25.884;2022-07-23T05:58:06;100553.63;;;24.48;53.58
47524;BME280;33253;42.144;25.884;2022-07-23T06:00:32;100557.78;;;24.62;52.78
47524;BME280;33253;42.144;25.884;2022-07-23T06:02:58;100559.47;;;24.64;53.13
47524;BME280;33253;42.144;25.884;2022-07-23T06:05:23;100551.09;;;24.44;54.54
47524;BME280;33253;42.144;25.884;2022-07-23T06:07:49;100518.78;;;24.31;53.77
47524;BME280;33253;42.144;25.884;2022-07-23T06:10:15;100557.72;;;24.65;53.66
47524;BME280;33253;42.144;25.884;2022-07-23T06:12:40;100555.00;;;24.69;52.29
47524;BME280;33253;42.144;25.884;2022-07-23T06:15:06;100548.81;;;24.70;52.87
47524;BME280;33253;42.144;25.884;2022-07-23T06:17:32;100540.75;;;24.78;52.87
47524;BME280;33253;42.144;25.884;2022-07-23T06:19:58;100538.88;;;24.83;52.80
47524;BME280;33253;42.144;25.884;2022-07-23T06:22:23;100552.69;;;24.96;52.33
47524;BME280;33253;42.144;25.884;2022-07-23T06:24:49;100547.91;;;25.14;52.00
47524;BME280;33253;42.144;25.884;2022-07-23T06:27:15;100540.75;;;25.19;51.35
47524;BME280;33253;42.144;25.884;2022-07-23T06:29:41;100540.50;;;25.30;51.79
47524;BME280;33253;42.144;25.884;2022-07-23T06:32:07;100477.78;;;25.00;51.49
47524;BME280;33253;42.144;25.884;2022-07-23T06:34:33;100531.53;;;25.39;51.77
47524;BME280;33253;42.144;25.884;2022-07-23T06:36:59;100495.44;;;25.36;52.15
47524;BME280;33253;42.144;25.884;2022-07-23T06:39:24;100528.66;;;25.48;52.54
47524;BME280;33253;42.144;25.884;2022-07-23T06:41:50;100533.66;;;25.60;52.24
47524;BME280;33253;42.144;25.884;2022-07-23T06:44:15;100520.13;;;25.73;51.73
47524;BME280;33253;42.144;25.884;2022-07-23T06:46:41;100477.22;;;25.61;51.02
47524;BME280;33253;42.144;25.884;2022-07-23T06:49:06;100511.94;;;25.82;52.35
47524;BME280;33253;42.144;25.884;2022-07-23T06:51:32;100455.97;;;25.66;51.20
47524;BME280;33253;42.144;25.884;2022-07-23T06:53:57;100504.34;;;26.06;51.66
47524;BME280;33253;42.144;25.884;2022-07-23T06:56:23;100525.81;;;26.26;51.78
47524;BME280;33253;42.144;25.884;2022-07-23T06:58:49;100522.03;;;26.35;52.04
47524;BME280;33253;42.144;25.884;2022-07-23T07:01:14;100527.13;;;26.43;51.52
47524;BME280;33253;42.144;25.884;2022-07-23T07:03:40;100505.94;;;26.43;50.78
47524;BME280;33253;42.144;25.884;2022-07-23T07:06:05;100487.28;;;26.47;50.90
47524;BME280;33253;42.144;25.884;2022-07-23T07:08:30;100480.97;;;26.53;51.43
47524;BME280;33253;42.144;25.884;2022-07-23T07:10:56;100468.28;;;26.63;50.77
47524;BME280;33253;42.144;25.884;2022-07-23T07:13:21;100521.75;;;27.07;50.08
47524;BME280;33253;42.144;25.884;2022-07-23T07:15:47;100521.59;;;27.12;50.88
47524;BME280;33253;42.144;25.884;2022-07-23T07:18:12;100525.63;;;27.24;50.50
47524;BME280;33253;42.144;25.884;2022-07-23T07:20:37;100519.16;;;27.33;49.54
47524;BME280;33253;42.144;25.884;2022-07-23T07:23:03;100491.19;;;27.24;49.50
47524;BME280;33253;42.144;25.884;2022-07-23T07:25:28;100507.50;;;27.38;49.34
47524;BME280;33253;42.144;25.884;2022-07-23T07:27:54;100488.84;;;27.43;48.88
47524;BME280;33253;42.144;25.884;2022-07-23T07:30:19;100510.94;;;27.69;48.90
47524;BME280;33253;42.144;25.884;2022-07-23T07:32:45;100505.78;;;27.91;47.47
47524;BME280;33253;42.144;25.884;2022-07-23T07:35:11;100502.06;;;27.97;48.32
47524;BME280;33253;42.144;25.884;2022-07-23T07:37:36;100500.84;;;28.07;46.65
47524;BME280;33253;42.144;25.884;2022-07-23T07:40:02;100502.38;;;28.14;47.53
47524;BME280;33253;42.144;25.884;2022-07-23T07:42:28;100488.75;;;28.23;46.26
47524;BME280;33253;42.144;25.884;2022-07-23T07:44:54;100495.47;;;28.34;46.05
47524;BME280;33253;42.144;25.884;2022-07-23T07:47:19;100479.06;;;28.46;44.57
47524;BME280;33253;42.144;25.884;2022-07-23T07:49:45;100487.13;;;28.68;44.04
47524;BME280;33253;42.144;25.884;2022-07-23T07:52:10;100494.50;;;28.84;42.77
47524;BME280;33253;42.144;25.884;2022-07-23T07:54:36;100481.22;;;28.84;42.63
47524;BME280;33253;42.144;25.884;2022-07-23T07:57:02;100501.44;;;28.88;41.49
47524;BME280;33253;42.144;25.884;2022-07-23T07:59:27;100485.34;;;28.91;41.91
47524;BME280;33253;42.144;25.884;2022-07-23T08:01:53;100490.25;;;29.02;40.61
47524;BME280;33253;42.144;25.884;2022-07-23T08:04:18;100496.06;;;29.12;40.64
47524;BME280;33253;42.144;25.884;2022-07-23T08:06:44;100491.00;;;29.28;40.23
47524;BME280;33253;42.144;25.884;2022-07-23T08:09:09;100484.78;;;29.29;39.59
47524;BME280;33253;42.144;25.884;2022-07-23T08:11:35;100494.50;;;29.30;41.97
47524;BME280;33253;42.144;25.884;2022-07-23T08:14:00;100481.91;;;29.11;38.95
47524;BME280;33253;42.144;25.884;2022-07-23T08:16:25;100467.13;;;29.04;39.96
47524;BME280;33253;42.144;25.884;2022-07-23T08:18:51;100480.38;;;29.28;39.51
47524;BME280;33253;42.144;25.884;2022-07-23T08:21:17;100485.56;;;29.31;40.49
47524;BME280;33253;42.144;25.884;2022-07-23T08:23:42;100477.41;;;29.35;39.48
47524;BME280;33253;42.144;25.884;2022-07-23T08:26:07;100477.50;;;29.54;37.16
47524;BME280;33253;42.144;25.884;2022-07-23T08:28:33;100474.66;;;29.59;37.05
47524;BME280;33253;42.144;25.884;2022-07-23T08:30:59;100466.72;;;29.78;35.76
47524;BME280;33253;42.144;25.884;2022-07-23T08:33:25;100467.97;;;29.92;38.60
47524;BME280;33253;42.144;25.884;2022-07-23T08:35:51;100464.31;;;29.94;36.91
47524;BME280;33253;42.144;25.884;2022-07-23T08:38:20;100450.53;;;30.05;36.11
47524;BME280;33253;42.144;25.884;2022-07-23T08:40:51;100413.00;;;29.91;36.30
47524;BME280;33253;42.144;25.884;2022-07-23T08:43:21;100456.69;;;30.26;36.13
47524;BME280;33253;42.144;25.884;2022-07-23T08:45:49;100459.31;;;30.47;35.88
47524;BME280;33253;42.144;25.884;2022-07-23T08:48:22;100433.25;;;30.54;34.23
47524;BME280;33253;42.144;25.884;2022-07-23T08:50:54;100462.03;;;30.84;34.17
47524;BME280;33253;42.144;25.884;2022-07-23T08:53:22;100465.84;;;30.97;34.01
47524;BME280;33253;42.144;25.884;2022-07-23T08:55:51;100455.66;;;31.05;35.43
47524;BME280;33253;42.144;25.884;2022-07-23T08:58:17;100448.84;;;31.00;35.18
47524;BME280;33253;42.144;25.884;2022-07-23T09:00:44;100456.41;;;31.09;34.97
47524;BME280;33253;42.144;25.884;2022-07-23T09:03:21;100450.78;;;31.33;33.46
47524;BME280;33253;42.144;25.884;2022-07-23T09:05:47;100434.25;;;31.43;32.83
47524;BME280;33253;42.144;25.884;2022-07-23T09:08:21;100444.28;;;31.56;33.25
47524;BME280;33253;42.144;25.884;2022-07-23T09:16:03;100438.16;;;31.89;30.94
47524;BME280;33253;42.144;25.884;2022-07-23T09:18:34;100430.16;;;31.89;30.42
47524;BME280;33253;42.144;25.884;2022-07-23T09:23:46;100429.09;;;32.09;29.53
47524;BME280;33253;42.144;25.884;2022-07-23T09:31:32;100422.63;;;32.47;31.08
47524;BME280;33253;42.144;25.884;2022-07-23T09:36:41;100383.50;;;32.62;30.24
47524;BME280;33253;42.144;25.884;2022-07-23T09:39:07;100408.16;;;32.99;30.99
47524;BME280;33253;42.144;25.884;2022-07-23T09:41:38;100394.06;;;33.11;31.24
47524;BME280;33253;42.144;25.884;2022-07-23T09:44:09;100401.88;;;33.30;31.52
47524;BME280;33253;42.144;25.884;2022-07-23T09:46:35;100404.09;;;33.38;29.63
47524;BME280;33253;42.144;25.884;2022-07-23T09:49:11;100396.78;;;33.56;29.81
47524;BME280;33253;42.144;25.884;2022-07-23T09:51:58;100406.63;;;33.70;27.61
47524;BME280;33253;42.144;25.884;2022-07-23T09:54:39;100399.84;;;33.79;27.37
47524;BME280;33253;42.144;25.884;2022-07-23T09:57:10;100374.34;;;33.88;26.35
47524;BME280;33253;42.144;25.884;2022-07-23T09:59:41;100348.63;;;33.85;26.03
47524;BME280;33253;42.144;25.884;2022-07-23T10:02:09;100387.72;;;34.16;25.90
47524;BME280;33253;42.144;25.884;2022-07-23T10:04:35;100380.28;;;34.07;26.52
47524;BME280;33253;42.144;25.884;2022-07-23T10:07:04;100391.91;;;34.21;26.69
47524;BME280;33253;42.144;25.884;2022-07-23T10:09:32;100380.50;;;34.31;25.93
47524;BME280;33253;42.144;25.884;2022-07-23T10:12:03;100383.50;;;34.41;26.44
47524;BME280;33253;42.144;25.884;2022-07-23T10:14:35;100385.97;;;34.72;26.52
47524;BME280;33253;42.144;25.884;2022-07-23T10:17:02;100353.38;;;34.50;25.48
47524;BME280;33253;42.144;25.884;2022-07-23T10:19:29;100363.41;;;34.61;25.66
47524;BME280;33253;42.144;25.884;2022-07-23T10:22:02;100370.00;;;34.97;25.54
47524;BME280;33253;42.144;25.884;2022-07-23T10:24:52;100367.16;;;35.26;24.73
47524;BME280;33253;42.144;25.884;2022-07-23T10:30:05;100359.06;;;35.67;24.89
47524;BME280;33253;42.144;25.884;2022-07-23T10:35:19;100354.41;;;35.82;24.39
47524;BME280;33253;42.144;25.884;2022-07-23T10:37:51;100324.31;;;35.76;24.26
47524;BME280;33253;42.144;25.884;2022-07-23T10:40:22;100326.22;;;36.00;25.21
47524;BME280;33253;42.144;25.884;2022-07-23T10:42:52;100347.03;;;36.22;23.65
47524;BME280;33253;42.144;25.884;2022-07-23T10:45:33;100334.75;;;36.31;23.55
47524;BME280;33253;42.144;25.884;2022-07-23T10:48:14;100338.31;;;36.32;24.47
47524;BME280;33253;42.144;25.884;2022-07-23T10:50:40;100334.38;;;36.49;23.51
47524;BME280;33253;42.144;25.884;2022-07-23T10:58:03;100314.97;;;36.81;22.68
47524;BME280;33253;42.144;25.884;2022-07-23T11:00:30;100318.47;;;36.94;22.77
47524;BME280;33253;42.144;25.884;2022-07-23T11:02:58;100295.88;;;37.08;22.54
47524;BME280;33253;42.144;25.884;2022-07-23T11:05:26;100290.75;;;37.28;21.64
47524;BME280;33253;42.144;25.884;2022-07-23T11:32:01;100283.59;;;37.85;23.78
47524;BME280;33253;42.144;25.884;2022-07-23T11:34:34;100274.75;;;37.94;21.66
47524;BME280;33253;42.144;25.884;2022-07-23T11:37:01;100270.09;;;37.96;21.90
47524;BME280;33253;42.144;25.884;2022-07-23T11:39:28;100274.41;;;37.87;21.84
47524;BME280;33253;42.144;25.884;2022-07-23T11:41:55;100266.69;;;37.83;20.93
47524;BME280;33253;42.144;25.884;2022-07-23T11:44:29;100276.56;;;37.71;21.75
47524;BME280;33253;42.144;25.884;2022-07-23T11:47:00;100273.25;;;38.01;21.61
47524;BME280;33253;42.144;25.884;2022-07-23T11:49:27;100262.91;;;38.18;22.51
47524;BME280;33253;42.144;25.884;2022-07-23T11:52:10;100264.25;;;38.35;22.85
47524;BME280;33253;42.144;25.884;2022-07-23T11:54:49;100265.03;;;38.47;22.52
47524;BME280;33253;42.144;25.884;2022-07-23T11:57:15;100253.63;;;38.55;21.72
47524;BME280;33253;42.144;25.884;2022-07-23T11:59:42;100269.56;;;38.79;21.39
47524;BME280;33253;42.144;25.884;2022-07-23T12:02:07;100264.31;;;38.98;20.42
47524;BME280;33253;42.144;25.884;2022-07-23T12:04:46;100261.06;;;39.05;20.68
47524;BME280;33253;42.144;25.884;2022-07-23T12:07:35;100256.72;;;38.71;22.98
47524;BME280;33253;42.144;25.884;2022-07-23T12:10:14;100253.66;;;38.64;19.67
47524;BME280;33253;42.144;25.884;2022-07-23T12:12:46;100249.31;;;38.85;20.23
47524;BME280;33253;42.144;25.884;2022-07-23T12:15:16;100241.22;;;38.85;20.00
47524;BME280;33253;42.144;25.884;2022-07-23T12:17:44;100236.84;;;38.93;22.63
47524;BME280;33253;42.144;25.884;2022-07-23T12:20:14;100246.06;;;39.12;22.48
47524;BME280;33253;42.144;25.884;2022-07-23T12:22:42;100219.06;;;39.12;20.04
47524;BME280;33253;42.144;25.884;2022-07-23T12:25:17;100231.19;;;38.96;20.02
47524;BME280;33253;42.144;25.884;2022-07-23T12:27:43;100220.69;;;39.03;20.85
47524;BME280;33253;42.144;25.884;2022-07-23T12:30:19;100222.81;;;39.21;21.09
47524;BME280;33253;42.144;25.884;2022-07-23T12:32:48;100221.25;;;39.28;20.03
47524;BME280;33253;42.144;25.884;2022-07-23T12:35:13;100226.88;;;39.46;20.29
47524;BME280;33253;42.144;25.884;2022-07-23T12:37:42;100216.38;;;39.53;19.80
47524;BME280;33253;42.144;25.884;2022-07-23T12:40:24;100229.25;;;39.70;19.76
47524;BME280;33253;42.144;25.884;2022-07-23T12:42:54;100222.91;;;39.91;18.91
47524;BME280;33253;42.144;25.884;2022-07-23T12:45:21;100208.41;;;39.92;18.65
47524;BME280;33253;42.144;25.884;2022-07-23T12:48:03;100149.72;;;39.63;18.57
47524;BME280;33253;42.144;25.884;2022-07-23T12:50:36;100186.16;;;39.69;18.70
47524;BME280;33253;42.144;25.884;2022-07-23T12:53:04;100209.03;;;39.64;20.07
47524;BME280;33253;42.144;25.884;2022-07-23T12:55:30;100213.59;;;39.33;20.20
47524;BME280;33253;42.144;25.884;2022-07-23T12:58:11;100208.69;;;39.48;20.00
47524;BME280;33253;42.144;25.884;2022-07-23T13:01:03;100179.13;;;39.56;20.58
47524;BME280;33253;42.144;25.884;2022-07-23T13:05:55;100162.47;;;39.41;19.65
47524;BME280;33253;42.144;25.884;2022-07-23T13:08:21;100202.97;;;39.82;19.48
47524;BME280;33253;42.144;25.884;2022-07-23T13:10:47;100187.47;;;39.74;19.70
47524;BME280;33253;42.144;25.884;2022-07-23T13:13:15;100181.00;;;39.56;20.16
47524;BME280;33253;42.144;25.884;2022-07-23T13:15:42;100133.56;;;38.39;20.14
47524;BME280;33253;42.144;25.884;2022-07-23T13:18:08;100190.97;;;38.93;22.63
47524;BME280;33253;42.144;25.884;2022-07-23T13:20:33;100182.16;;;38.91;21.48
47524;BME280;33253;42.144;25.884;2022-07-23T13:22:59;100180.94;;;39.05;21.37
47524;BME280;33253;42.144;25.884;2022-07-23T13:25:25;100188.16;;;39.26;21.42
47524;BME280;33253;42.144;25.884;2022-07-23T13:27:51;100171.84;;;39.37;20.45
47524;BME280;33253;42.144;25.884;2022-07-23T13:30:16;100177.00;;;39.60;19.72
47524;BME280;33253;42.144;25.884;2022-07-23T13:32:42;100129.78;;;39.54;19.60
47524;BME280;33253;42.144;25.884;2022-07-23T13:35:08;100165.28;;;40.00;19.27
47524;BME280;33253;42.144;25.884;2022-07-23T13:37:34;100174.72;;;40.16;19.62
47524;BME280;33253;42.144;25.884;2022-07-23T13:40:00;100167.28;;;40.18;18.87